Terminal Aerodrome Forecast
Issued by NWS

Home | Current Version | Previous Version | Text Only | Print | Product List | Glossary On
Versions: 1 2 3 4 5 6 7 8 9 10 11 12 13 14 15 16 17 18 19 20 21 22 23 24 25 26 27 28 29 30 31 32 33 34 35 36 37 38 39 40 41 42
000
FTUS44 KHGX 051929 AAA
TAFCXO
TAF AMD
KCXO 051929Z 0519/0618 14017G27KT P6SM VCTS SCT035CB SCT060 BKN110
      TEMPO 0520/0521 VRB30KT 3SM TSRA BKN025CB
     FM060000 14010KT P6SM VCSH SCT050
     FM060400 14012KT P6SM FEW004 SCT010
      TEMPO 0610/0614 BKN008
     FM061400 13014G22KT P6SM SCT025 BKN035=

USA.gov is the U.S. government's official web portal to all federal, state and local government web resources and services.